Time;durP1;ratioP1;P1;durP2;ratioP2;P2;SDS_P1;SDS_P2;PMS_P1;PMS_P2;Temp;Humidity;BMP_temperature;BMP_pressure;BME280_temperature;BME280_humidity;BME280_pressure;Samples;Min_cycle;Max_cycle;Signal;HPM_P1;HPM_P2
2023/10/06 00:02:11;;;;;;;4.37;2.40;;;17.70;96.00;;;;;;10509105;28;20815;-65
2023/10/06 00:07:14;;;;;;;4.65;2.47;;;17.70;96.00;;;;;;10502891;28;20486;-65
2023/10/06 00:12:16;;;;;;;5.20;2.60;;;17.70;96.00;;;;;;10496534;28;20866;-65
2023/10/06 00:17:17;;;;;;;4.30;2.45;;;17.70;96.00;;;;;;10499077;28;20416;-66
2023/10/06 00:22:18;;;;;;;5.25;2.40;;;17.70;96.00;;;;;;10488588;28;20395;-66
2023/10/06 00:27:21;;;;;;;5.00;2.73;;;17.60;96.00;;;;;;10484259;28;20416;-65
2023/10/06 00:32:28;;;;;;;5.30;2.83;;;17.60;96.00;;;;;;10494887;28;20502;-66
2023/10/06 00:37:29;;;;;;;5.40;2.83;;;17.60;96.00;;;;;;10500831;28;20499;-64
2023/10/06 00:42:29;;;;;;;5.50;2.97;;;17.60;96.00;;;;;;10499380;28;20806;-65
2023/10/06 00:47:38;;;;;;;4.88;2.55;;;17.60;96.00;;;;;;10491366;28;20398;-65
2023/10/06 00:52:42;;;;;;;5.45;2.80;;;17.60;96.10;;;;;;10499681;28;20405;-65
2023/10/06 00:57:52;;;;;;;5.78;2.95;;;17.60;96.00;;;;;;10491143;28;20405;-65
2023/10/06 01:02:53;;;;;;;5.22;3.15;;;17.60;96.00;;;;;;10504180;28;20482;-65
2023/10/06 01:07:54;;;;;;;4.85;2.70;;;17.60;96.00;;;;;;10497012;28;20481;-65
2023/10/06 01:12:56;;;;;;;5.07;3.00;;;17.60;96.00;;;;;;10501319;28;20400;-65
2023/10/06 01:17:58;;;;;;;5.32;2.80;;;17.60;96.00;;;;;;10495664;28;20884;-65
2023/10/06 01:23:00;;;;;;;4.53;2.80;;;17.50;96.00;;;;;;10492275;28;20392;-65
2023/10/06 01:28:03;;;;;;;6.23;2.93;;;17.50;96.00;;;;;;10500635;28;20405;-66
2023/10/06 01:33:05;;;;;;;5.00;2.83;;;17.50;96.00;;;;;;10494675;28;20397;-65
2023/10/06 01:38:13;;;;;;;5.57;2.80;;;17.50;96.00;;;;;;10495276;28;20783;-65
2023/10/06 01:43:14;;;;;;;6.07;3.17;;;17.50;96.00;;;;;;10491583;28;20432;-66
2023/10/06 01:53:23;;;;;;;4.75;3.05;;;17.50;96.10;;;;;;10495276;28;20400;-65
2023/10/06 01:58:23;;;;;;;5.53;2.90;;;17.50;96.10;;;;;;10495267;28;20404;-64
2023/10/06 02:03:24;;;;;;;6.17;3.00;;;17.50;96.10;;;;;;10492481;28;20396;-65
2023/10/06 02:08:26;;;;;;;5.00;3.00;;;17.50;96.10;;;;;;10498315;28;20983;-65
2023/10/06 02:13:29;;;;;;;5.13;2.90;;;17.50;96.10;;;;;;10496593;28;20399;-65
2023/10/06 02:18:36;;;;;;;7.07;2.97;;;17.50;96.10;;;;;;10491632;28;20408;-65
2023/10/06 02:23:41;;;;;;;6.30;3.50;;;17.40;96.20;;;;;;10499898;28;20443;-65
2023/10/06 02:28:48;;;;;;;5.68;3.10;;;17.40;96.10;;;;;;10490143;28;20386;-65
2023/10/06 02:33:51;;;;;;;5.22;3.20;;;17.40;96.10;;;;;;10495007;28;20483;-66
2023/10/06 02:38:52;;;;;;;6.50;3.20;;;17.40;96.10;;;;;;10494867;28;20832;-65
2023/10/06 02:43:54;;;;;;;5.60;3.07;;;17.40;96.10;;;;;;10495973;28;20398;-65
2023/10/06 02:48:55;;;;;;;5.43;3.15;;;17.40;96.20;;;;;;10502141;28;20921;-66
2023/10/06 02:59:21;;;;;;;5.07;3.20;;;17.40;96.20;;;;;;10492751;28;20437;-65
2023/10/06 03:04:26;;;;;;;5.93;3.20;;;17.40;96.20;;;;;;10503224;28;20426;-66
2023/10/06 03:09:43;;;;;;;5.70;3.27;;;17.40;96.20;;;;;;10504105;28;20574;-66
2023/10/06 03:14:43;;;;;;;6.27;3.40;;;17.40;96.20;;;;;;10503081;28;20493;-65
2023/10/06 03:19:44;;;;;;;5.00;3.30;;;17.30;96.20;;;;;;10501257;28;20570;-65
2023/10/06 03:24:57;;;;;;;6.60;3.40;;;17.40;96.20;;;;;;10502027;28;20439;-65
2023/10/06 03:30:07;;;;;;;5.05;3.20;;;17.30;96.20;;;;;;10499981;28;20401;-66
2023/10/06 03:40:30;;;;;;;5.32;3.13;;;17.30;96.20;;;;;;10505066;28;20829;-65
2023/10/06 03:45:32;;;;;;;5.07;3.20;;;17.30;96.20;;;;;;10506736;28;20901;-65
2023/10/06 03:50:32;;;;;;;4.73;2.97;;;17.30;96.20;;;;;;10504271;28;20439;-65
2023/10/06 03:55:44;;;;;;;4.68;3.17;;;17.30;96.20;;;;;;10507809;28;20528;-65
2023/10/06 04:00:49;;;;;;;5.63;3.20;;;17.30;96.20;;;;;;10501851;28;20821;-65
2023/10/06 04:05:51;;;;;;;5.93;3.23;;;17.30;96.20;;;;;;10498645;28;21021;-65
2023/10/06 04:10:54;;;;;;;6.38;3.30;;;17.30;96.20;;;;;;10496681;28;20943;-65
2023/10/06 04:15:57;;;;;;;5.53;3.17;;;17.20;96.20;;;;;;10500971;28;20765;-65
2023/10/06 04:20:57;;;;;;;4.03;2.85;;;17.20;96.20;;;;;;10498962;28;20406;-66
2023/10/06 04:25:58;;;;;;;5.93;3.23;;;17.20;96.20;;;;;;10501353;28;20397;-65
2023/10/06 04:31:00;;;;;;;5.43;3.10;;;17.20;96.20;;;;;;10493995;28;20401;-64
2023/10/06 04:36:07;;;;;;;6.05;3.00;;;17.20;96.20;;;;;;10491919;28;20906;-65
2023/10/06 04:41:09;;;;;;;4.50;2.93;;;17.60;96.30;;;;;;10494369;28;20501;-65
2023/10/06 04:46:10;;;;;;;5.68;3.00;;;17.20;96.20;;;;;;10500757;28;20390;-64
2023/10/06 04:51:11;;;;;;;4.90;2.90;;;17.20;96.20;;;;;;10504874;28;20899;-65
2023/10/06 04:56:12;;;;;;;5.00;2.80;;;17.20;96.20;;;;;;10505766;28;20405;-66
2023/10/06 05:01:13;;;;;;;4.55;2.78;;;17.20;96.20;;;;;;10501451;28;20398;-66
2023/10/06 05:06:21;;;;;;;5.35;2.90;;;17.20;96.20;;;;;;10501055;28;20461;-66
2023/10/06 05:11:23;;;;;;;6.80;3.17;;;17.80;96.30;;;;;;10493698;28;20406;-66
2023/10/06 05:16:27;;;;;;;5.70;3.23;;;17.20;96.20;;;;;;10505761;28;20981;-65
2023/10/06 05:21:27;;;;;;;7.25;2.88;;;17.10;96.20;;;;;;10495775;28;20418;-66
2023/10/06 05:26:28;;;;;;;4.77;2.93;;;17.20;96.20;;;;;;10496022;28;20420;-64
2023/10/06 05:31:29;;;;;;;5.77;2.90;;;17.20;96.20;;;;;;10504236;28;20409;-65
2023/10/06 05:36:29;;;;;;;5.70;3.10;;;17.10;96.20;;;;;;10492845;28;20414;-65
2023/10/06 05:41:32;;;;;;;6.25;3.28;;;17.10;96.20;;;;;;10508368;28;21262;-64
2023/10/06 05:46:33;;;;;;;4.90;3.20;;;17.20;96.20;;;;;;10504672;28;20434;-65
2023/10/06 05:51:33;;;;;;;5.97;3.27;;;17.10;96.20;;;;;;10496683;28;20900;-65
2023/10/06 05:56:37;;;;;;;5.73;3.00;;;17.10;96.20;;;;;;10492246;28;20459;-65
2023/10/06 06:01:41;;;;;;;5.37;3.10;;;17.10;96.20;;;;;;10487837;28;20446;-65
2023/10/06 06:06:42;;;;;;;6.18;3.00;;;17.10;96.20;;;;;;10495546;28;20419;-65
2023/10/06 06:11:43;;;;;;;4.65;2.92;;;16.70;96.10;;;;;;10499292;28;20411;-65
2023/10/06 06:16:44;;;;;;;5.43;3.10;;;17.10;96.10;;;;;;10500374;28;20390;-65
2023/10/06 06:21:45;;;;;;;5.00;3.13;;;17.10;96.10;;;;;;10491421;28;20459;-65
2023/10/06 06:26:45;;;;;;;5.47;3.10;;;17.20;96.20;;;;;;10497338;28;20956;-64
2023/10/06 06:31:49;;;;;;;5.20;3.07;;;17.10;96.10;;;;;;10507264;28;20795;-65
2023/10/06 06:36:51;;;;;;;4.78;3.05;;;17.20;96.10;;;;;;10506780;28;20455;-66
2023/10/06 06:41:53;;;;;;;5.30;3.00;;;17.20;96.10;;;;;;10508377;28;20409;-65
2023/10/06 06:46:54;;;;;;;5.72;3.00;;;17.20;96.10;;;;;;10510848;28;20401;-65
2023/10/06 06:51:58;;;;;;;3.70;2.80;;;17.20;96.10;;;;;;10514134;28;20398;-65
2023/10/06 06:56:59;;;;;;;5.18;2.80;;;17.20;96.10;;;;;;10514335;28;21656;-64
2023/10/06 07:01:59;;;;;;;6.13;3.27;;;17.20;96.10;;;;;;10505052;28;20428;-65
2023/10/06 07:07:01;;;;;;;6.83;3.10;;;17.20;96.10;;;;;;10507364;28;20828;-66
2023/10/06 07:12:03;;;;;;;7.53;3.40;;;17.20;96.20;;;;;;10493874;28;20610;-65
2023/10/06 07:17:04;;;;;;;5.28;3.15;;;17.20;96.20;;;;;;10492815;28;20426;-65
2023/10/06 07:22:05;;;;;;;5.43;2.90;;;17.20;96.20;;;;;;10479026;28;20460;-65
2023/10/06 07:27:08;;;;;;;5.25;2.65;;;17.20;96.20;;;;;;10484591;28;20402;-65
2023/10/06 07:32:10;;;;;;;5.35;2.70;;;17.20;96.20;;;;;;10493866;28;20883;-65
2023/10/06 07:37:11;;;;;;;4.80;2.70;;;17.20;96.20;;;;;;10492587;28;20996;-65
2023/10/06 07:42:16;;;;;;;5.63;2.70;;;17.20;96.20;;;;;;10488497;28;20494;-64
2023/10/06 07:47:24;;;;;;;6.55;2.95;;;17.20;96.20;;;;;;10495837;28;20413;-65
2023/10/06 07:52:24;;;;;;;4.57;2.78;;;17.20;96.20;;;;;;10491073;28;20754;-64
2023/10/06 07:57:31;;;;;;;4.10;2.63;;;17.20;96.20;;;;;;10497434;28;20391;-65
2023/10/06 08:02:32;;;;;;;6.03;2.70;;;17.20;96.40;;;;;;10489866;28;20889;-65
2023/10/06 08:07:33;;;;;;;4.85;2.92;;;17.30;96.20;;;;;;10490618;28;20405;-65
2023/10/06 08:12:33;;;;;;;4.57;2.97;;;17.30;96.30;;;;;;10491273;28;20404;-65
2023/10/06 08:17:34;;;;;;;4.25;2.85;;;17.20;96.30;;;;;;10495907;28;20441;-65
2023/10/06 08:22:35;;;;;;;5.53;2.80;;;17.20;96.20;;;;;;10491739;28;20408;-66
2023/10/06 08:27:36;;;;;;;5.97;2.80;;;17.20;96.20;;;;;;10499500;28;20395;-65
2023/10/06 08:32:37;;;;;;;5.90;2.90;;;17.30;96.30;;;;;;10500040;28;20407;-67
2023/10/06 08:37:37;;;;;;;6.00;2.70;;;17.30;96.30;;;;;;10489920;28;20436;-65
2023/10/06 08:42:40;;;;;;;5.73;3.10;;;17.30;96.20;;;;;;10502290;28;20787;-65
2023/10/06 08:47:41;;;;;;;5.05;2.85;;;17.30;96.30;;;;;;10495049;28;20467;-65
2023/10/06 08:52:45;;;;;;;5.60;3.10;;;17.30;96.40;;;;;;10492595;28;20431;-64
2023/10/06 08:57:47;;;;;;;6.68;2.80;;;17.30;96.50;;;;;;10498627;28;20418;-65
2023/10/06 09:02:51;;;;;;;4.65;3.10;;;17.30;96.30;;;;;;10492067;28;20388;-65
2023/10/06 09:08:14;;;;;;;5.80;3.37;;;17.30;96.30;;;;;;10492282;28;20450;-65
2023/10/06 09:13:20;;;;;;;6.30;2.93;;;17.30;96.30;;;;;;10487767;28;20391;-66
2023/10/06 09:18:24;;;;;;;4.20;2.83;;;17.30;96.30;;;;;;10489770;28;20919;-64
2023/10/06 09:23:31;;;;;;;5.93;2.92;;;17.30;96.40;;;;;;10490591;28;20892;-65
2023/10/06 09:28:33;;;;;;;5.13;2.90;;;17.40;96.40;;;;;;10491655;28;20770;-66
2023/10/06 09:33:36;;;;;;;6.90;3.20;;;17.40;96.30;;;;;;10485094;28;20405;-65
2023/10/06 09:38:39;;;;;;;5.78;3.00;;;17.40;96.30;;;;;;10499059;28;20853;-65
2023/10/06 09:43:40;;;;;;;5.50;3.10;;;17.40;96.30;;;;;;10487968;28;20398;-65
2023/10/06 09:48:43;;;;;;;4.90;3.03;;;17.50;96.30;;;;;;10498256;28;22495;-65
2023/10/06 09:53:47;;;;;;;4.70;3.13;;;17.50;96.30;;;;;;10494000;28;20426;-66
2023/10/06 09:58:48;;;;;;;5.57;3.15;;;17.60;96.30;;;;;;10498033;28;20403;-66
2023/10/06 10:03:58;;;;;;;5.22;3.28;;;17.60;96.30;;;;;;10494419;28;20392;-66
2023/10/06 10:08:59;;;;;;;5.60;3.10;;;17.70;96.20;;;;;;10486163;28;20404;-65
2023/10/06 10:14:22;;;;;;;5.55;2.97;;;17.80;96.20;;;;;;10496398;28;20427;-66
2023/10/06 10:19:26;;;;;;;7.87;3.30;;;17.90;96.20;;;;;;10486371;28;20451;-65
2023/10/06 10:24:27;;;;;;;6.57;3.30;;;17.90;96.10;;;;;;10490658;28;20607;-65
2023/10/06 10:29:28;;;;;;;6.07;3.17;;;18.00;96.20;;;;;;10484252;28;20398;-64
2023/10/06 10:34:52;;;;;;;6.35;3.25;;;18.00;96.20;;;;;;10493327;28;20406;-65
2023/10/06 10:39:55;;;;;;;5.43;2.90;;;18.00;96.20;;;;;;10492461;28;20561;-65
2023/10/06 10:45:35;;;;;;;5.37;2.87;;;18.00;96.20;;;;;;10490431;28;20784;-65
2023/10/06 10:51:05;;;;;;;5.97;2.90;;;18.00;96.20;;;;;;10490644;28;20410;-66
2023/10/06 10:56:13;;;;;;;6.15;3.30;;;18.00;96.30;;;;;;10500613;28;20403;-65
2023/10/06 11:01:29;;;;;;;5.45;2.97;;;18.00;96.30;;;;;;10491685;28;20407;-65
2023/10/06 11:06:30;;;;;;;6.07;3.10;;;18.00;96.30;;;;;;10494733;28;20416;-65
2023/10/06 11:11:34;;;;;;;6.07;3.07;;;18.00;96.40;;;;;;10489655;28;20391;-66
2023/10/06 11:16:35;;;;;;;7.78;3.28;;;18.00;96.50;;;;;;10496996;28;20389;-66
2023/10/06 11:21:35;;;;;;;4.95;2.90;;;18.00;96.50;;;;;;10496943;28;20481;-65
2023/10/06 11:26:43;;;;;;;7.93;3.60;;;18.00;96.50;;;;;;10503030;28;20755;-66
2023/10/06 11:31:50;;;;;;;6.35;2.85;;;18.10;96.40;;;;;;10505927;28;20757;-65
2023/10/06 11:36:56;;;;;;;5.50;3.00;;;18.10;96.40;;;;;;10505551;28;20422;-66
2023/10/06 11:42:25;;;;;;;6.57;2.80;;;18.10;96.40;;;;;;10508710;28;20802;-64
2023/10/06 11:47:26;;;;;;;8.30;3.15;;;18.10;96.50;;;;;;10505921;28;20391;-65
2023/10/06 11:52:27;;;;;;;6.60;3.10;;;18.20;96.50;;;;;;10509571;28;20471;-64
2023/10/06 11:57:47;;;;;;;5.97;3.00;;;18.20;96.60;;;;;;10506524;28;20481;-65
2023/10/06 12:02:50;;;;;;;7.53;3.00;;;18.20;96.50;;;;;;10494113;28;20484;-66
2023/10/06 12:07:51;;;;;;;7.20;3.30;;;18.20;96.60;;;;;;10501689;28;20881;-65
2023/10/06 12:12:52;;;;;;;6.70;3.10;;;18.30;96.60;;;;;;10500544;28;20393;-66
2023/10/06 12:17:52;;;;;;;6.13;3.00;;;18.30;96.60;;;;;;10490264;28;20407;-65
2023/10/06 12:22:53;;;;;;;6.10;2.90;;;18.40;96.60;;;;;;10502306;28;20384;-65
2023/10/06 12:27:56;;;;;;;6.65;2.80;;;18.50;96.60;;;;;;10498426;28;20400;-65
2023/10/06 12:33:00;;;;;;;5.47;2.83;;;18.50;96.60;;;;;;10500259;28;20396;-66
2023/10/06 12:38:01;;;;;;;5.95;3.00;;;18.60;96.60;;;;;;10495867;28;20414;-65
2023/10/06 12:43:02;;;;;;;8.43;3.38;;;18.60;96.50;;;;;;10504029;28;20909;-66
2023/10/06 12:48:04;;;;;;;6.10;2.75;;;18.70;96.50;;;;;;10512287;28;20401;-65
2023/10/06 12:53:05;;;;;;;5.17;2.80;;;18.70;96.60;;;;;;10511343;28;20433;-66
2023/10/06 12:58:06;;;;;;;6.07;2.90;;;18.70;96.60;;;;;;10519427;28;20924;-65
2023/10/06 13:03:15;;;;;;;7.32;2.78;;;18.70;96.70;;;;;;10493420;28;20508;-65
2023/10/06 13:08:17;;;;;;;8.65;2.90;;;18.70;96.80;;;;;;10482523;28;20931;-66
2023/10/06 13:13:17;;;;;;;6.03;2.90;;;18.70;96.80;;;;;;10493668;28;20478;-65
2023/10/06 13:18:18;;;;;;;5.23;2.77;;;18.80;96.90;;;;;;10477216;28;20541;-66
2023/10/06 13:23:21;;;;;;;8.70;3.00;;;18.80;96.90;;;;;;10490667;28;20400;-66
2023/10/06 13:28:22;;;;;;;6.10;2.90;;;18.90;96.90;;;;;;10495213;28;20396;-66
2023/10/06 13:33:25;;;;;;;6.53;2.50;;;18.90;96.80;;;;;;10499756;28;20403;-65
2023/10/06 13:38:26;;;;;;;5.40;2.70;;;18.90;96.70;;;;;;10493856;28;20929;-64
2023/10/06 13:43:26;;;;;;;6.33;3.07;;;19.00;96.80;;;;;;10501908;28;20407;-65
2023/10/06 13:48:28;;;;;;;6.30;2.53;;;19.00;96.80;;;;;;10503593;28;20396;-66
2023/10/06 13:53:29;;;;;;;5.40;2.60;;;19.00;96.90;;;;;;10502372;28;20526;-66
2023/10/06 13:58:29;;;;;;;7.10;2.63;;;19.10;96.90;;;;;;10494998;28;20509;-64
2023/10/06 14:03:31;;;;;;;6.97;2.77;;;19.10;96.80;;;;;;10494539;28;20382;-65
2023/10/06 14:08:33;;;;;;;4.65;2.60;;;19.10;96.90;;;;;;10488078;28;20440;-64
2023/10/06 14:13:34;;;;;;;6.97;2.90;;;19.10;96.90;;;;;;10487623;28;20492;-65
2023/10/06 14:18:37;;;;;;;6.93;2.53;;;19.10;96.90;;;;;;10484224;28;20419;-65
2023/10/06 14:23:46;;;;;;;5.57;2.40;;;19.10;96.90;;;;;;10491787;28;20390;-65
2023/10/06 14:28:48;;;;;;;5.53;2.30;;;19.10;96.90;;;;;;10493581;28;20668;-65
2023/10/06 14:33:57;;;;;;;6.03;2.58;;;19.10;96.90;;;;;;10499809;28;20416;-65
2023/10/06 14:49:43;;;;;;;5.47;2.22;;;19.10;97.00;;;;;;10511646;28;20785;-66
2023/10/06 14:54:44;;;;;;;6.55;2.50;;;19.10;97.00;;;;;;10505150;28;20814;-65
2023/10/06 14:59:45;;;;;;;5.97;2.60;;;19.10;97.00;;;;;;10497414;28;20403;-66
2023/10/06 15:04:46;;;;;;;3.97;2.20;;;19.10;97.00;;;;;;10508119;28;20407;-65
2023/10/06 15:09:46;;;;;;;6.40;2.30;;;19.10;97.00;;;;;;10500786;28;20916;-66
2023/10/06 15:14:48;;;;;;;5.07;2.53;;;19.10;97.00;;;;;;10508304;28;20398;-65
2023/10/06 15:19:50;;;;;;;4.75;2.47;;;19.10;97.00;;;;;;10489412;28;20421;-65
2023/10/06 15:24:50;;;;;;;5.32;2.22;;;19.10;97.00;;;;;;10504821;28;20408;-65
2023/10/06 15:29:52;;;;;;;5.03;2.37;;;19.10;97.30;;;;;;10504481;28;20418;-65
2023/10/06 15:34:53;;;;;;;6.28;2.35;;;19.10;97.10;;;;;;10508402;28;20419;-64
2023/10/06 15:39:54;;;;;;;6.17;2.53;;;19.10;97.20;;;;;;10510670;28;20428;-66
2023/10/06 15:44:57;;;;;;;5.03;2.50;;;19.10;97.20;;;;;;10512855;28;20747;-65
2023/10/06 15:49:58;;;;;;;6.80;2.67;;;19.10;97.20;;;;;;10510047;28;20524;-64
2023/10/06 15:54:59;;;;;;;6.75;2.17;;;19.10;97.20;;;;;;10503891;28;20935;-66
2023/10/06 15:59:59;;;;;;;4.53;2.10;;;19.10;97.30;;;;;;10498326;28;20418;-65
2023/10/06 16:05:00;;;;;;;6.60;2.37;;;19.10;97.30;;;;;;10505050;28;20406;-66
2023/10/06 16:10:01;;;;;;;6.30;2.37;;;19.10;97.40;;;;;;10502502;28;20671;-66
2023/10/06 16:15:02;;;;;;;4.60;2.40;;;19.10;97.40;;;;;;10494740;28;20397;-65
2023/10/06 16:20:06;;;;;;;6.47;2.60;;;19.00;97.30;;;;;;10490752;28;20458;-65
2023/10/06 16:25:08;;;;;;;6.28;2.70;;;19.00;97.60;;;;;;10506151;28;20400;-65
2023/10/06 16:30:13;;;;;;;5.75;2.50;;;19.00;97.30;;;;;;10482522;28;20410;-64
2023/10/06 16:35:13;;;;;;;5.55;2.42;;;19.00;97.40;;;;;;10501834;28;20414;-66
2023/10/06 16:40:15;;;;;;;4.93;2.40;;;19.00;97.40;;;;;;10511238;28;20927;-65
2023/10/06 16:45:15;;;;;;;5.43;2.50;;;19.00;97.40;;;;;;10507338;28;20426;-65
2023/10/06 16:50:16;;;;;;;6.50;2.47;;;19.00;97.40;;;;;;10506542;28;20448;-65
2023/10/06 16:55:17;;;;;;;6.03;2.40;;;19.00;97.40;;;;;;10507016;28;20402;-65
2023/10/06 17:00:18;;;;;;;3.23;2.40;;;19.00;97.40;;;;;;10499070;28;20415;-65
2023/10/06 17:05:21;;;;;;;6.75;2.33;;;19.00;97.40;;;;;;10503192;28;20406;-65
2023/10/06 17:10:22;;;;;;;7.03;2.58;;;17.90;97.10;;;;;;10490123;28;20411;-65
2023/10/06 17:15:23;;;;;;;5.10;2.20;;;18.90;97.40;;;;;;10508996;28;20401;-64
2023/10/06 17:20:24;;;;;;;4.43;2.07;;;18.90;97.30;;;;;;10496591;28;20930;-65
2023/10/06 17:25:25;;;;;;;5.97;2.53;;;18.90;97.30;;;;;;10496941;28;20418;-65
2023/10/06 17:30:25;;;;;;;6.00;2.63;;;18.90;97.20;;;;;;10491147;28;20686;-66
2023/10/06 17:35:28;;;;;;;4.63;2.60;;;18.90;97.20;;;;;;10498677;28;20410;-65
2023/10/06 17:40:29;;;;;;;5.45;2.60;;;18.90;97.20;;;;;;10486136;28;20796;-66
2023/10/06 17:45:36;;;;;;;6.22;2.45;;;18.90;97.20;;;;;;10482429;28;20411;-66
2023/10/06 17:50:47;;;;;;;5.68;2.60;;;18.90;97.20;;;;;;10479110;28;20479;-66
2023/10/06 17:55:56;;;;;;;6.05;2.40;;;18.90;97.20;;;;;;10469069;28;20413;-65
2023/10/06 18:00:57;;;;;;;6.78;2.75;;;18.90;97.20;;;;;;10482882;28;20775;-65
2023/10/06 18:05:58;;;;;;;6.50;2.80;;;18.90;97.20;;;;;;10478083;28;20426;-64
2023/10/06 18:10:59;;;;;;;6.60;2.60;;;18.90;97.20;;;;;;10480566;28;20658;-65
2023/10/06 18:16:04;;;;;;;7.07;2.90;;;18.80;97.20;;;;;;10479970;28;20828;-65
2023/10/06 18:21:05;;;;;;;6.80;2.90;;;18.80;97.20;;;;;;10473861;28;20792;-64
2023/10/06 18:26:13;;;;;;;6.33;2.63;;;18.80;97.20;;;;;;10490162;28;20395;-66
2023/10/06 18:31:13;;;;;;;6.55;2.80;;;18.80;97.20;;;;;;10481841;28;20408;-64
2023/10/06 18:36:14;;;;;;;5.80;2.50;;;18.80;97.20;;;;;;10493279;28;20403;-64
2023/10/06 18:41:15;;;;;;;5.60;2.58;;;18.80;97.20;;;;;;10489571;28;20915;-65
2023/10/06 18:46:18;;;;;;;5.63;2.83;;;18.80;97.30;;;;;;10491206;28;20382;-66
2023/10/06 18:51:19;;;;;;;5.60;2.95;;;18.80;97.30;;;;;;10497504;28;20395;-64
2023/10/06 18:56:20;;;;;;;6.15;2.70;;;18.80;97.30;;;;;;10501970;28;20440;-65
2023/10/06 19:01:21;;;;;;;4.50;2.50;;;18.70;97.30;;;;;;10495885;28;20509;-66
2023/10/06 19:06:23;;;;;;;5.17;2.67;;;18.80;97.30;;;;;;10494730;28;20894;-66
2023/10/06 19:11:24;;;;;;;7.22;2.83;;;18.80;97.30;;;;;;10491943;28;20745;-67
2023/10/06 19:16:26;;;;;;;5.18;2.60;;;18.80;97.40;;;;;;10491087;28;20399;-65
2023/10/06 19:21:27;;;;;;;6.28;2.95;;;18.70;97.40;;;;;;10492535;28;20411;-65
2023/10/06 19:26:27;;;;;;;6.78;2.92;;;18.80;97.40;;;;;;10484576;28;20403;-65
2023/10/06 19:31:28;;;;;;;7.43;2.80;;;18.70;97.40;;;;;;10494408;28;22252;-65
2023/10/06 19:36:33;;;;;;;7.57;3.10;;;18.70;97.40;;;;;;10495140;28;20486;-65
2023/10/06 19:41:34;;;;;;;9.05;2.97;;;18.70;97.40;;;;;;10495146;28;20417;-65
2023/10/06 19:46:35;;;;;;;5.90;3.07;;;18.70;97.50;;;;;;10497953;28;20389;-66
2023/10/06 19:51:36;;;;;;;6.30;2.70;;;18.70;97.60;;;;;;10496125;28;20396;-65
2023/10/06 19:56:36;;;;;;;7.53;2.75;;;18.70;97.60;;;;;;10495209;28;20416;-64
2023/10/06 20:01:37;;;;;;;5.90;2.90;;;18.70;97.60;;;;;;10489921;28;20420;-65
2023/10/06 20:06:37;;;;;;;7.22;3.47;;;18.70;97.60;;;;;;10497160;28;20423;-65
2023/10/06 20:11:38;;;;;;;8.50;3.42;;;18.70;97.60;;;;;;10491330;28;20917;-65
2023/10/06 20:16:39;;;;;;;7.83;3.10;;;18.70;97.70;;;;;;10485820;28;20404;-64
2023/10/06 20:21:39;;;;;;;6.10;3.27;;;18.60;97.70;;;;;;10490972;28;20418;-65
2023/10/06 20:26:40;;;;;;;8.37;3.33;;;18.60;97.70;;;;;;10493970;28;20474;-64
2023/10/06 20:31:42;;;;;;;6.03;3.40;;;18.60;97.70;;;;;;10497714;28;20412;-64
2023/10/06 20:36:45;;;;;;;6.00;3.03;;;18.60;97.70;;;;;;10499155;28;20944;-65
2023/10/06 20:41:45;;;;;;;7.07;3.03;;;18.60;97.70;;;;;;10504023;28;20423;-63
2023/10/06 20:46:46;;;;;;;5.47;3.00;;;18.60;97.70;;;;;;10491837;28;20767;-67
2023/10/06 20:51:48;;;;;;;8.70;3.23;;;18.60;97.70;;;;;;10498551;28;20411;-66
2023/10/06 20:56:48;;;;;;;6.40;3.27;;;18.60;97.70;;;;;;10496799;28;20778;-65
2023/10/06 21:01:49;;;;;;;6.63;3.47;;;18.70;97.80;;;;;;10497928;28;20408;-66
2023/10/06 21:06:50;;;;;;;7.00;3.42;;;18.50;97.70;;;;;;10490057;28;20500;-65
2023/10/06 21:11:50;;;;;;;6.93;4.32;;;18.50;97.70;;;;;;10500487;28;20407;-64
2023/10/06 21:16:51;;;;;;;8.90;4.23;;;18.50;97.80;;;;;;10499171;28;20491;-65
2023/10/06 21:21:53;;;;;;;8.30;4.53;;;18.50;97.80;;;;;;10490958;28;20420;-66
2023/10/06 21:26:54;;;;;;;10.43;4.25;;;18.50;97.80;;;;;;10493119;28;20600;-66
2023/10/06 21:31:55;;;;;;;8.52;4.10;;;18.50;97.80;;;;;;10501641;28;20931;-66
2023/10/06 21:36:56;;;;;;;8.73;3.80;;;18.50;97.80;;;;;;10497568;28;20415;-65
2023/10/06 21:41:56;;;;;;;8.88;4.00;;;18.50;97.90;;;;;;10491390;28;20407;-66
2023/10/06 21:46:57;;;;;;;8.25;4.68;;;18.50;98.00;;;;;;10494286;28;20400;-66
2023/10/06 21:51:58;;;;;;;10.65;5.15;;;18.50;97.90;;;;;;10503405;28;20418;-65
2023/10/06 21:56:58;;;;;;;10.77;6.47;;;18.40;97.90;;;;;;10502522;28;20460;-66
2023/10/06 22:01:59;;;;;;;9.03;4.10;;;18.40;97.90;;;;;;10500062;28;20649;-65
2023/10/06 22:07:00;;;;;;;9.03;4.57;;;18.40;97.90;;;;;;10493704;28;20709;-66
2023/10/06 22:12:00;;;;;;;7.60;3.80;;;18.40;97.90;;;;;;10491327;28;20418;-66
2023/10/06 22:17:05;;;;;;;7.00;3.63;;;18.40;98.00;;;;;;10489451;28;20401;-66
2023/10/06 22:22:06;;;;;;;6.25;3.60;;;18.40;98.00;;;;;;10484457;28;20412;-65
2023/10/06 22:27:06;;;;;;;8.60;4.23;;;18.40;98.00;;;;;;10494620;28;20395;-66
2023/10/06 22:32:07;;;;;;;7.90;3.80;;;18.40;98.00;;;;;;10501783;28;20897;-66
2023/10/06 22:37:08;;;;;;;8.23;4.00;;;18.40;98.00;;;;;;10505706;28;20761;-65
2023/10/06 22:42:10;;;;;;;7.87;3.83;;;18.30;98.00;;;;;;10505329;28;20773;-66
2023/10/06 22:47:10;;;;;;;8.32;3.85;;;18.30;98.00;;;;;;10496112;28;20772;-66
2023/10/06 22:52:13;;;;;;;6.73;3.97;;;18.30;98.00;;;;;;10494140;28;20401;-66
2023/10/06 22:57:14;;;;;;;8.40;3.90;;;18.30;98.10;;;;;;10493131;28;20403;-66
2023/10/06 23:02:14;;;;;;;7.50;3.80;;;18.30;98.10;;;;;;10498311;28;20415;-67
2023/10/06 23:07:16;;;;;;;8.23;3.60;;;18.30;98.10;;;;;;10502501;28;20398;-66
2023/10/06 23:12:17;;;;;;;8.00;3.80;;;18.30;98.10;;;;;;10517097;28;20402;-64
2023/10/06 23:17:18;;;;;;;10.87;4.20;;;18.30;98.10;;;;;;10510352;28;20706;-65
2023/10/06 23:22:19;;;;;;;8.40;4.00;;;18.30;98.10;;;;;;10496391;28;20413;-64
2023/10/06 23:27:20;;;;;;;10.57;4.27;;;18.30;98.10;;;;;;10509572;28;20493;-65
2023/10/06 23:32:21;;;;;;;7.97;3.83;;;18.30;98.10;;;;;;10511517;28;20402;-66
2023/10/06 23:37:22;;;;;;;10.10;3.80;;;18.20;98.10;;;;;;10515452;28;20417;-66
2023/10/06 23:42:24;;;;;;;9.00;3.53;;;18.20;98.10;;;;;;10513922;28;20406;-66
2023/10/06 23:47:28;;;;;;;8.70;3.83;;;18.30;98.10;;;;;;10501397;28;20415;-65
2023/10/06 23:52:30;;;;;;;6.97;3.60;;;18.20;98.10;;;;;;10500249;28;20429;-66
2023/10/06 23:57:31;;;;;;;7.55;3.70;;;18.20;98.10;;;;;;10503469;28;20485;-66
